createdAt,value
2023-04-20T00:02:27.111Z,5.93
2023-04-20T00:05:13.949Z,4.97
2023-04-20T00:08:01.307Z,5.50
2023-04-20T00:10:49.485Z,5.53
2023-04-20T00:13:36.358Z,5.60
2023-04-20T00:16:23.106Z,6.47
2023-04-20T00:19:10.235Z,6.00
2023-04-20T00:21:56.852Z,6.33
2023-04-20T00:24:43.668Z,6.37
2023-04-20T00:27:31.879Z,5.70
2023-04-20T00:30:18.572Z,6.77
2023-04-20T00:33:05.453Z,6.43
2023-04-20T00:35:52.268Z,6.40
2023-04-20T00:38:38.874Z,6.80
2023-04-20T00:41:25.693Z,6.27
2023-04-20T00:44:14.226Z,6.43
2023-04-20T00:47:00.821Z,7.57
2023-04-20T00:49:47.540Z,6.87
2023-04-20T00:52:34.912Z,6.07
2023-04-20T00:55:22.501Z,6.33
2023-04-20T00:58:09.064Z,6.60
2023-04-20T01:00:57.332Z,7.10
2023-04-20T01:03:44.540Z,7.67
2023-04-20T01:06:31.806Z,6.97
2023-04-20T01:09:18.775Z,7.33
2023-04-20T01:12:06.328Z,6.97
2023-04-20T01:14:53.181Z,8.30
2023-04-20T01:17:41.691Z,6.83
2023-04-20T01:20:28.470Z,7.07
2023-04-20T01:23:16.936Z,6.50
2023-04-20T01:26:07.519Z,7.00
2023-04-20T01:28:54.189Z,8.47
2023-04-20T01:31:40.773Z,8.17
2023-04-20T01:34:27.617Z,7.67
2023-04-20T01:37:14.341Z,7.83
2023-04-20T01:40:02.583Z,8.23
2023-04-20T01:42:49.387Z,7.93
2023-04-20T01:45:36.106Z,7.93
2023-04-20T01:48:22.933Z,7.50
2023-04-20T01:51:09.940Z,7.90
2023-04-20T01:53:56.843Z,8.13
2023-04-20T01:56:45.071Z,7.77
2023-04-20T01:59:31.844Z,8.90
2023-04-20T02:02:21.205Z,8.07
2023-04-20T02:05:08.719Z,8.73
2023-04-20T02:07:55.178Z,9.43
2023-04-20T02:10:41.949Z,8.40
2023-04-20T02:13:30.858Z,7.93
2023-04-20T02:16:19.176Z,7.90
2023-04-20T02:19:06.486Z,8.80
2023-04-20T02:21:53.280Z,8.23
2023-04-20T02:24:40.325Z,8.73
2023-04-20T02:27:26.803Z,9.43
2023-04-20T02:30:15.536Z,9.87
2023-04-20T02:33:02.876Z,10.00
2023-04-20T02:35:49.914Z,10.13
2023-04-20T02:38:38.068Z,10.10
2023-04-20T02:41:27.049Z,11.03
2023-04-20T02:44:13.949Z,11.03
2023-04-20T02:47:02.346Z,11.07
2023-04-20T02:49:50.411Z,11.27
2023-04-20T02:52:38.264Z,10.63
2023-04-20T02:55:25.749Z,12.30
2023-04-20T02:58:15.599Z,11.47
2023-04-20T03:01:21.073Z,11.80
2023-04-20T03:04:12.201Z,12.03
2023-04-20T03:07:05.976Z,11.23
2023-04-20T03:09:55.214Z,12.23
2023-04-20T03:12:42.021Z,12.67
2023-04-20T03:15:46.105Z,12.93
2023-04-20T03:18:42.592Z,12.73
2023-04-20T03:21:31.389Z,12.67
2023-04-20T03:24:19.216Z,12.73
2023-04-20T03:27:06.329Z,12.03
2023-04-20T03:30:24.524Z,12.80
2023-04-20T03:33:20.373Z,11.90
2023-04-20T03:36:08.137Z,12.43
2023-04-20T03:38:57.942Z,12.90
2023-04-20T03:41:44.687Z,12.07
2023-04-20T03:44:31.338Z,13.33
2023-04-20T03:47:18.146Z,12.83
2023-04-20T03:50:05.796Z,12.70
2023-04-20T03:52:52.452Z,11.93
2023-04-20T03:55:41.611Z,12.77
2023-04-20T03:58:32.098Z,12.63
2023-04-20T04:01:25.903Z,13.53
2023-04-20T04:04:12.570Z,13.17
2023-04-20T04:06:58.954Z,13.00
2023-04-20T04:09:45.686Z,13.10
2023-04-20T04:12:34.298Z,12.90
2023-04-20T04:15:21.736Z,13.30
2023-04-20T04:18:14.541Z,13.63
2023-04-20T04:21:01.730Z,12.80
2023-04-20T04:23:48.426Z,13.33
2023-04-20T04:26:59.148Z,12.70
2023-04-20T04:29:50.105Z,13.30
2023-04-20T04:32:39.444Z,12.53
2023-04-20T04:35:27.964Z,12.70
2023-04-20T04:38:15.821Z,13.43
2023-04-20T04:41:07.364Z,12.93
2023-04-20T04:43:54.170Z,12.73
2023-04-20T04:46:49.979Z,12.90
2023-04-20T04:49:37.206Z,11.97
2023-04-20T04:52:25.810Z,13.43
2023-04-20T04:55:13.807Z,12.13
2023-04-20T04:58:01.859Z,12.70
2023-04-20T05:00:48.986Z,12.33
2023-04-20T05:03:39.731Z,12.77
2023-04-20T05:06:27.008Z,12.13
2023-04-20T05:09:13.756Z,13.10
2023-04-20T05:12:00.900Z,11.33
2023-04-20T05:14:47.594Z,11.77
2023-04-20T05:17:34.371Z,12.93
2023-04-20T05:20:22.535Z,13.27
2023-04-20T05:23:09.453Z,12.30
2023-04-20T05:25:56.367Z,12.53
2023-04-20T05:28:43.184Z,13.30
2023-04-20T05:31:31.065Z,12.77
2023-04-20T05:34:17.885Z,13.13
2023-04-20T05:37:06.746Z,12.40
2023-04-20T05:39:53.476Z,13.77
2023-04-20T05:42:40.981Z,12.63
2023-04-20T05:45:27.841Z,13.07
2023-04-20T05:48:14.642Z,13.37
2023-04-20T05:51:01.435Z,12.93
2023-04-20T05:53:49.613Z,12.90
2023-04-20T05:56:36.408Z,12.67
2023-04-20T05:59:23.623Z,11.80
2023-04-20T06:02:10.581Z,12.70
2023-04-20T06:04:57.365Z,11.63
2023-04-20T06:07:44.061Z,13.17
2023-04-20T06:10:34.308Z,13.90
2023-04-20T06:13:21.186Z,11.63
2023-04-20T06:16:11.030Z,11.90
2023-04-20T06:18:57.446Z,13.03
2023-04-20T06:21:44.363Z,11.77
2023-04-20T06:24:31.219Z,13.13
2023-04-20T06:27:19.239Z,11.87
2023-04-20T06:30:07.211Z,13.10
2023-04-20T06:32:53.860Z,12.63
2023-04-20T06:35:40.917Z,11.97
2023-04-20T06:38:27.732Z,13.80
2023-04-20T06:41:15.507Z,13.50
2023-04-20T06:44:03.771Z,11.67
2023-04-20T06:46:50.461Z,12.23
2023-04-20T06:49:39.312Z,12.47
2023-04-20T06:52:25.911Z,10.47
2023-04-20T06:55:13.432Z,11.43
2023-04-20T06:57:59.794Z,15.93
2023-04-20T07:00:48.167Z,13.17
2023-04-20T07:03:35.268Z,12.30
2023-04-20T07:06:21.922Z,11.43
2023-04-20T07:09:09.433Z,11.30
2023-04-20T07:11:56.572Z,11.57
2023-04-20T07:14:43.433Z,11.40
2023-04-20T07:17:31.636Z,10.70
2023-04-20T07:20:18.172Z,10.13
2023-04-20T07:23:05.149Z,10.47
2023-04-20T07:25:51.652Z,10.73
2023-04-20T07:28:38.489Z,11.03
2023-04-20T07:31:25.548Z,10.40
2023-04-20T07:34:13.267Z,9.83
2023-04-20T07:37:00.205Z,10.97
2023-04-20T07:39:47.010Z,11.07
2023-04-20T07:42:34.407Z,11.67
2023-04-20T07:45:23.042Z,10.93
2023-04-20T07:48:12.495Z,11.10
2023-04-20T07:51:00.717Z,10.20
2023-04-20T07:53:47.978Z,9.80
2023-04-20T07:56:34.786Z,10.13
2023-04-20T07:59:22.083Z,11.93
2023-04-20T08:02:09.584Z,9.40
2023-04-20T08:04:56.277Z,8.60
2023-04-20T08:07:44.407Z,9.60
2023-04-20T08:10:31.246Z,8.90
2023-04-20T08:13:17.960Z,8.87
2023-04-20T08:16:05.089Z,8.50
2023-04-20T08:18:51.708Z,9.50
2023-04-20T08:21:38.578Z,8.10
2023-04-20T08:24:27.068Z,9.40
2023-04-20T08:27:14.075Z,7.90
2023-04-20T08:30:00.893Z,7.10
2023-04-20T08:32:47.839Z,7.57
2023-04-20T08:35:34.415Z,7.87
2023-04-20T08:38:32.927Z,7.40
2023-04-20T08:41:22.622Z,8.03
2023-04-20T08:44:09.770Z,8.57
2023-04-20T08:46:56.754Z,8.13
2023-04-20T08:49:46.035Z,7.80
2023-04-20T08:52:33.370Z,7.23
2023-04-20T08:55:21.231Z,7.73
2023-04-20T08:58:09.117Z,7.77
2023-04-20T09:00:55.915Z,7.73
2023-04-20T09:03:44.535Z,7.50
2023-04-20T09:06:31.633Z,7.97
2023-04-20T09:09:18.762Z,8.50
2023-04-20T09:12:07.456Z,8.63
2023-04-20T09:14:56.861Z,7.27
2023-04-20T09:17:43.773Z,7.33
2023-04-20T09:20:31.765Z,7.40
2023-04-20T09:23:21.241Z,7.63
2023-04-20T09:26:08.010Z,9.27
2023-04-20T09:28:55.161Z,8.60
2023-04-20T09:31:42.912Z,8.30
2023-04-20T09:34:29.840Z,8.17
2023-04-20T09:37:17.876Z,7.90
2023-04-20T09:40:06.033Z,8.70
2023-04-20T09:42:55.298Z,8.20
2023-04-20T09:45:41.978Z,8.47
2023-04-20T09:48:32.112Z,9.10
2023-04-20T09:51:19.399Z,9.00
2023-04-20T09:54:07.361Z,8.93
2023-04-20T09:56:55.107Z,9.50
2023-04-20T09:59:44.324Z,10.70
2023-04-20T10:02:31.219Z,9.90
2023-04-20T10:05:19.466Z,9.20
2023-04-20T10:08:06.379Z,9.07
2023-04-20T10:10:52.990Z,8.83
2023-04-20T10:13:39.732Z,10.17
2023-04-20T10:16:27.542Z,9.47
2023-04-20T10:19:14.758Z,10.63
2023-04-20T10:22:03.154Z,11.30
2023-04-20T10:24:49.926Z,12.13
2023-04-20T10:27:36.685Z,10.83
2023-04-20T10:30:24.788Z,11.23
2023-04-20T10:33:12.995Z,11.13
2023-04-20T10:35:59.808Z,10.50
2023-04-20T10:38:47.670Z,11.70
2023-04-20T10:41:34.466Z,11.90
2023-04-20T10:44:21.962Z,11.97
2023-04-20T10:47:08.403Z,11.77
2023-04-20T10:49:55.476Z,12.93
2023-04-20T10:52:43.937Z,12.20
2023-04-20T10:55:32.230Z,12.20
2023-04-20T10:58:23.566Z,11.63
2023-04-20T11:01:10.571Z,12.50
2023-04-20T11:03:57.301Z,12.33
2023-04-20T11:06:45.536Z,11.93
2023-04-20T11:09:33.989Z,12.53
2023-04-20T11:12:22.985Z,11.40
2023-04-20T11:15:11.030Z,11.87
2023-04-20T11:17:57.942Z,11.60
2023-04-20T11:20:53.176Z,11.23
2023-04-20T11:23:39.871Z,11.07
2023-04-20T11:26:35.868Z,11.07
2023-04-20T11:29:32.018Z,11.47
2023-04-20T11:32:20.355Z,11.60
2023-04-20T11:35:10.913Z,10.30
2023-04-20T11:37:58.848Z,10.03
2023-04-20T11:40:45.658Z,11.50
2023-04-20T11:43:32.776Z,10.70
2023-04-20T11:46:21.508Z,10.13
2023-04-20T11:49:08.119Z,9.90
2023-04-20T11:51:54.968Z,9.70
2023-04-20T11:54:41.887Z,9.60
2023-04-20T11:57:28.469Z,10.07
2023-04-20T12:00:16.187Z,9.77
2023-04-20T12:03:04.528Z,10.27
2023-04-20T12:05:51.392Z,9.70
2023-04-20T12:08:38.203Z,9.60
2023-04-20T12:11:25.728Z,9.67
2023-04-20T12:14:12.543Z,9.33
2023-04-20T12:16:59.308Z,9.43
2023-04-20T12:19:47.894Z,8.97
2023-04-20T12:22:34.654Z,8.70
2023-04-20T12:25:21.754Z,8.50
2023-04-20T12:28:08.763Z,9.50
2023-04-20T12:30:55.717Z,8.50
2023-04-20T12:33:43.575Z,8.00
2023-04-20T12:36:32.088Z,8.30
2023-04-20T12:39:18.599Z,8.13
2023-04-20T12:42:05.451Z,8.17
2023-04-20T12:44:54.093Z,7.37
2023-04-20T12:47:40.782Z,7.80
2023-04-20T12:50:27.560Z,7.87
2023-04-20T12:53:15.664Z,7.43
2023-04-20T12:56:02.492Z,7.47
2023-04-20T12:58:49.270Z,7.90
2023-04-20T13:01:36.102Z,7.70
2023-04-20T13:04:23.375Z,6.97
2023-04-20T13:07:10.816Z,6.83
2023-04-20T13:09:58.655Z,7.70
2023-04-20T13:12:45.389Z,7.53
2023-04-20T13:15:39.151Z,7.20
2023-04-20T13:18:26.332Z,7.50
2023-04-20T13:21:13.107Z,7.10
2023-04-20T13:23:59.887Z,7.90
2023-04-20T13:26:48.092Z,7.43
2023-04-20T13:29:34.889Z,7.10
2023-04-20T13:32:21.757Z,7.53
2023-04-20T13:35:12.435Z,7.33
2023-04-20T13:37:58.868Z,7.83
2023-04-20T13:40:45.940Z,7.30
2023-04-20T13:43:34.314Z,7.43
2023-04-20T13:46:21.445Z,7.07
2023-04-20T13:49:08.049Z,6.83
2023-04-20T13:51:55.549Z,6.57
2023-04-20T13:54:41.888Z,6.53
2023-04-20T13:57:30.040Z,7.67
2023-04-20T14:00:18.784Z,6.73
2023-04-20T14:03:06.281Z,6.93
2023-04-20T14:05:52.970Z,6.70
2023-04-20T14:08:39.637Z,6.90
2023-04-20T14:11:26.546Z,6.70
2023-04-20T14:14:13.388Z,5.70
2023-04-20T14:17:02.025Z,5.70
2023-04-20T14:19:49.621Z,6.23
2023-04-20T14:22:37.500Z,5.77
2023-04-20T14:25:24.149Z,5.60
2023-04-20T14:28:10.922Z,6.07
2023-04-20T14:30:57.737Z,5.40
2023-04-20T14:33:45.952Z,5.73
2023-04-20T14:36:32.748Z,6.27
2023-04-20T14:39:20.946Z,5.40
2023-04-20T14:42:07.728Z,5.53
2023-04-20T14:44:54.335Z,6.10
2023-04-20T14:47:42.013Z,5.73
2023-04-20T14:50:31.945Z,5.13
2023-04-20T14:53:18.440Z,5.60
2023-04-20T14:56:05.750Z,4.97
2023-04-20T14:58:52.632Z,5.43
2023-04-20T15:01:45.478Z,5.60
2023-04-20T15:04:38.027Z,5.23
2023-04-20T15:07:26.360Z,4.93
2023-04-20T15:10:13.264Z,4.93
2023-04-20T15:12:59.983Z,4.60
2023-04-20T15:15:48.599Z,5.03
2023-04-20T15:18:36.730Z,4.40
2023-04-20T15:21:24.140Z,5.00
2023-04-20T15:24:12.230Z,4.77
2023-04-20T15:26:58.855Z,5.27
2023-04-20T15:29:45.577Z,5.00
2023-04-20T15:32:33.940Z,5.10
2023-04-20T15:35:20.782Z,4.90
2023-04-20T15:38:07.548Z,4.57
2023-04-20T15:40:55.717Z,4.63
2023-04-20T15:43:43.711Z,4.63
2023-04-20T15:46:30.696Z,4.97
2023-04-20T15:49:20.102Z,4.73
2023-04-20T15:52:06.564Z,5.27
2023-04-20T15:54:53.396Z,4.33
2023-04-20T15:57:42.674Z,4.93
2023-04-20T16:00:31.528Z,4.80
2023-04-20T16:03:18.214Z,4.57
2023-04-20T16:06:04.930Z,4.07
2023-04-20T16:08:54.117Z,4.33
2023-04-20T16:11:40.799Z,4.70
2023-04-20T16:14:28.686Z,5.00
2023-04-20T16:17:15.744Z,4.80
2023-04-20T16:20:02.354Z,5.70
2023-04-20T16:22:48.991Z,5.00
2023-04-20T16:25:38.449Z,5.17
2023-04-20T16:28:25.316Z,4.87
2023-04-20T16:31:13.503Z,5.77
2023-04-20T16:34:00.740Z,5.70
2023-04-20T16:36:47.887Z,5.20
2023-04-20T16:39:34.402Z,5.03
2023-04-20T16:42:21.411Z,5.47
2023-04-20T16:45:09.293Z,5.60
2023-04-20T16:47:58.754Z,5.20
2023-04-20T16:50:45.802Z,5.50
2023-04-20T16:53:32.373Z,5.27
2023-04-20T16:56:19.184Z,5.43
2023-04-20T16:59:06.084Z,5.33
2023-04-20T17:01:52.786Z,5.13
2023-04-20T17:04:40.957Z,5.20
2023-04-20T17:07:28.218Z,4.90
2023-04-20T17:10:15.281Z,4.87
2023-04-20T17:13:01.943Z,5.40
2023-04-20T17:15:48.780Z,4.87
2023-04-20T17:18:35.597Z,4.83
2023-04-20T17:21:23.662Z,4.70
2023-04-20T17:24:10.365Z,5.10
2023-04-20T17:26:57.168Z,4.83
2023-04-20T17:29:44.966Z,4.70
2023-04-20T17:32:32.080Z,5.23
2023-04-20T17:35:18.566Z,4.67
2023-04-20T17:38:06.685Z,4.70
2023-04-20T17:40:53.358Z,4.93
2023-04-20T17:43:41.086Z,5.63
2023-04-20T17:46:28.161Z,4.60
2023-04-20T17:49:14.721Z,4.53
2023-04-20T17:52:01.920Z,4.53
2023-04-20T17:54:50.206Z,4.53
2023-04-20T17:57:36.867Z,5.13
2023-04-20T18:00:24.096Z,4.73
2023-04-20T18:03:11.230Z,4.50
2023-04-20T18:05:57.837Z,5.03
2023-04-20T18:08:44.751Z,4.47
2023-04-20T18:11:32.969Z,4.83
2023-04-20T18:14:19.896Z,4.27
2023-04-20T18:17:07.023Z,4.40
2023-04-20T18:19:53.776Z,5.00
2023-04-20T18:22:40.584Z,5.07
2023-04-20T18:25:27.485Z,4.90
2023-04-20T18:28:15.600Z,4.90
2023-04-20T18:31:02.708Z,4.43
2023-04-20T18:33:49.012Z,4.80
2023-04-20T18:36:36.144Z,4.03
2023-04-20T18:39:22.664Z,4.50
2023-04-20T18:42:09.410Z,5.17
2023-04-20T18:44:57.264Z,4.47
2023-04-20T18:47:44.203Z,5.10
2023-04-20T18:50:30.810Z,4.73
2023-04-20T18:53:17.513Z,4.20
2023-04-20T18:56:04.556Z,4.77
2023-04-20T18:58:51.201Z,4.87
2023-04-20T19:01:40.757Z,5.10
2023-04-20T19:04:27.710Z,5.07
2023-04-20T19:07:14.569Z,4.90
2023-04-20T19:10:01.694Z,5.07
2023-04-20T19:12:48.298Z,4.87
2023-04-20T19:15:35.324Z,5.00
2023-04-20T19:18:23.395Z,4.63
2023-04-20T19:21:11.350Z,4.53
2023-04-20T19:23:58.179Z,5.00
2023-04-20T19:26:45.057Z,5.23
2023-04-20T19:29:31.599Z,5.17
2023-04-20T19:32:18.858Z,4.97
2023-04-20T19:35:07.294Z,5.00
2023-04-20T19:37:53.749Z,4.47
2023-04-20T19:40:40.528Z,5.93
2023-04-20T19:43:37.351Z,5.67
2023-04-20T19:46:26.256Z,4.93
2023-04-20T19:49:14.256Z,4.93
2023-04-20T19:52:02.396Z,5.20
2023-04-20T19:54:49.119Z,5.10
2023-04-20T19:57:35.938Z,5.10
2023-04-20T20:00:22.960Z,5.87
2023-04-20T20:03:10.442Z,5.70
2023-04-20T20:05:57.208Z,5.77
2023-04-20T20:08:45.395Z,5.90
2023-04-20T20:11:33.283Z,5.50
2023-04-20T20:14:20.275Z,5.33
2023-04-20T20:17:07.180Z,5.80
2023-04-20T20:19:55.776Z,5.37
2023-04-20T20:22:48.204Z,5.50
2023-04-20T20:25:36.481Z,4.93
2023-04-20T20:28:23.163Z,5.57
2023-04-20T20:31:10.005Z,5.70
2023-04-20T20:33:56.870Z,5.27
2023-04-20T20:36:46.038Z,7.27
2023-04-20T20:39:32.543Z,5.50
2023-04-20T20:42:21.512Z,5.43
2023-04-20T20:45:10.937Z,5.17
2023-04-20T20:47:57.860Z,5.73
2023-04-20T20:50:44.504Z,5.60
2023-04-20T20:53:31.195Z,5.10
2023-04-20T20:56:17.981Z,5.70
2023-04-20T20:59:06.138Z,5.13
2023-04-20T21:01:53.072Z,5.43
2023-04-20T21:04:39.977Z,5.50
2023-04-20T21:07:26.864Z,5.10
2023-04-20T21:10:13.413Z,5.10
2023-04-20T21:13:00.381Z,5.50
2023-04-20T21:15:48.546Z,5.40
2023-04-20T21:18:35.279Z,5.07
2023-04-20T21:21:21.944Z,5.00
2023-04-20T21:24:08.676Z,5.20
2023-04-20T21:26:55.275Z,5.60
2023-04-20T21:29:42.107Z,5.87
2023-04-20T21:32:30.303Z,5.60
2023-04-20T21:35:17.393Z,5.27
2023-04-20T21:38:04.845Z,5.20
2023-04-20T21:40:51.573Z,5.50
2023-04-20T21:43:38.140Z,4.93
2023-04-20T21:46:25.079Z,5.17
2023-04-20T21:49:13.143Z,5.20
2023-04-20T21:51:59.893Z,5.70
2023-04-20T21:54:47.096Z,5.47
2023-04-20T21:57:33.772Z,5.70
2023-04-20T22:00:20.816Z,5.10
2023-04-20T22:03:07.829Z,5.03
2023-04-20T22:05:56.227Z,5.03
2023-04-20T22:08:42.782Z,5.80
2023-04-20T22:11:29.761Z,5.73
2023-04-20T22:14:16.912Z,6.20
2023-04-20T22:17:05.084Z,5.73
2023-04-20T22:19:51.518Z,5.60
2023-04-20T22:22:40.208Z,6.00
2023-04-20T22:25:27.081Z,5.50
2023-04-20T22:28:13.814Z,6.33
2023-04-20T22:31:00.632Z,5.40
2023-04-20T22:33:47.507Z,5.80
2023-04-20T22:36:35.251Z,6.00
2023-04-20T22:39:23.379Z,5.70
2023-04-20T22:42:10.073Z,6.10
2023-04-20T22:44:56.883Z,6.20
2023-04-20T22:47:43.541Z,5.80
2023-04-20T22:50:30.452Z,5.70
2023-04-20T22:53:17.148Z,6.13
2023-04-20T22:56:07.468Z,5.73
2023-04-20T22:58:55.029Z,5.43
2023-04-20T23:01:41.936Z,5.63
2023-04-20T23:04:28.873Z,5.87
2023-04-20T23:07:15.560Z,6.07
2023-04-20T23:10:02.882Z,6.23
2023-04-20T23:12:55.047Z,5.80
2023-04-20T23:15:41.690Z,5.57
2023-04-20T23:18:28.421Z,5.70
2023-04-20T23:21:15.247Z,6.27
2023-04-20T23:24:04.197Z,5.77
2023-04-20T23:26:55.597Z,5.83
2023-04-20T23:29:43.817Z,5.53
2023-04-20T23:32:30.709Z,4.87
2023-04-20T23:35:18.988Z,5.17
2023-04-20T23:38:05.860Z,4.67
2023-04-20T23:40:52.799Z,5.27
2023-04-20T23:43:40.078Z,5.07
2023-04-20T23:46:28.472Z,6.13
2023-04-20T23:49:15.166Z,5.57
2023-04-20T23:52:01.806Z,5.00
2023-04-20T23:54:48.549Z,5.03
2023-04-20T23:57:35.500Z,5.50
